createdAt,value
2022-10-28T00:01:37.700Z,13.23
2022-10-28T00:04:04.657Z,19.08
2022-10-28T00:06:36.788Z,20.95
2022-10-28T00:09:06.848Z,16.30
2022-10-28T00:11:36.732Z,23.10
2022-10-28T00:14:05.802Z,16.77
2022-10-28T00:16:35.113Z,10.60
2022-10-28T00:19:03.470Z,18.77
2022-10-28T00:21:33.202Z,23.23
2022-10-28T00:24:00.952Z,15.32
2022-10-28T00:26:31.411Z,17.77
2022-10-28T00:29:04.677Z,16.70
2022-10-28T00:31:33.113Z,16.73
2022-10-28T00:34:01.717Z,11.95
2022-10-28T00:36:33.081Z,12.45
2022-10-28T00:39:01.150Z,14.20
2022-10-28T00:41:29.653Z,18.17
2022-10-28T00:43:58.962Z,15.80
2022-10-28T00:46:36.414Z,20.45
2022-10-28T00:49:12.912Z,20.25
2022-10-28T00:51:40.024Z,15.85
2022-10-28T00:54:08.227Z,18.25
2022-10-28T00:56:42.976Z,16.25
2022-10-28T00:59:18.733Z,21.08
2022-10-28T01:01:46.425Z,22.15
2022-10-28T01:04:14.132Z,21.05
2022-10-28T01:06:45.022Z,16.65
2022-10-28T01:09:11.857Z,16.98
2022-10-28T01:11:54.571Z,17.42
2022-10-28T01:14:48.936Z,19.95
2022-10-28T01:17:34.018Z,14.52
2022-10-28T01:20:00.816Z,15.45
2022-10-28T01:22:33.995Z,15.50
2022-10-28T01:25:10.109Z,12.20
2022-10-28T01:27:40.218Z,14.38
2022-10-28T01:30:28.885Z,17.10
2022-10-28T01:33:36.830Z,18.83
2022-10-28T01:36:15.575Z,19.95
2022-10-28T01:38:48.851Z,15.75
2022-10-28T01:41:39.289Z,16.52
2022-10-28T01:44:35.619Z,14.65
2022-10-28T01:47:14.308Z,11.05
2022-10-28T01:49:56.252Z,17.38
2022-10-28T01:52:28.322Z,19.20
2022-10-28T01:55:09.004Z,16.45
2022-10-28T01:57:38.509Z,16.70
2022-10-28T02:00:06.239Z,18.02
2022-10-28T02:02:56.466Z,12.82
2022-10-28T02:05:39.488Z,16.75
2022-10-28T02:08:18.326Z,17.48
2022-10-28T02:11:00.914Z,15.27
2022-10-28T02:14:11.563Z,17.92
2022-10-28T02:17:00.626Z,17.98
2022-10-28T02:19:30.222Z,16.98
2022-10-28T02:22:09.297Z,15.88
2022-10-28T02:24:54.862Z,15.55
2022-10-28T02:27:33.661Z,21.38
2022-10-28T02:30:08.052Z,14.65
2022-10-28T02:32:40.426Z,22.23
2022-10-28T02:35:20.396Z,21.92
2022-10-28T02:37:51.345Z,17.35
2022-10-28T02:40:27.797Z,16.75
2022-10-28T02:43:04.945Z,14.38
2022-10-28T02:45:45.969Z,16.48
2022-10-28T02:48:27.183Z,13.93
2022-10-28T02:51:01.591Z,16.17
2022-10-28T02:53:37.317Z,21.65
2022-10-28T02:56:07.716Z,19.95
2022-10-28T02:58:41.089Z,13.32
2022-10-28T03:01:08.503Z,16.20
2022-10-28T03:03:35.389Z,13.02
2022-10-28T03:06:02.180Z,15.32
2022-10-28T03:08:28.997Z,17.27
2022-10-28T03:10:56.053Z,16.67
2022-10-28T03:13:23.798Z,17.38
2022-10-28T03:15:50.956Z,13.60
2022-10-28T03:18:17.708Z,24.25
2022-10-28T03:20:44.586Z,12.77
2022-10-28T03:23:11.434Z,8.98
2022-10-28T03:25:38.346Z,16.45
2022-10-28T03:28:05.441Z,17.40
2022-10-28T03:30:32.416Z,21.20
2022-10-28T03:32:59.087Z,13.77
2022-10-28T03:35:25.865Z,18.02
2022-10-28T03:37:52.591Z,18.70
2022-10-28T03:40:19.394Z,20.33
2022-10-28T03:42:46.112Z,15.95
2022-10-28T03:45:13.352Z,14.88
2022-10-28T03:47:41.796Z,20.10
2022-10-28T03:50:08.997Z,16.27
2022-10-28T03:52:35.881Z,13.80
2022-10-28T03:55:02.817Z,15.73
2022-10-28T03:57:33.384Z,13.50
2022-10-28T04:02:27.293Z,17.55
2022-10-28T04:04:54.099Z,15.38
2022-10-28T04:07:20.937Z,13.20
2022-10-28T04:09:51.357Z,13.80
2022-10-28T04:12:18.862Z,11.93
2022-10-28T04:14:45.617Z,11.88
2022-10-28T04:17:12.411Z,17.15
2022-10-28T04:19:39.123Z,19.02
2022-10-28T04:22:06.401Z,17.85
2022-10-28T04:24:33.237Z,16.42
2022-10-28T04:27:00.134Z,18.00
2022-10-28T04:29:27.009Z,15.18
2022-10-28T04:31:53.757Z,18.92
2022-10-28T04:34:20.450Z,21.20
2022-10-28T04:36:47.232Z,16.10
2022-10-28T04:39:13.967Z,15.23
2022-10-28T04:41:40.803Z,15.57
2022-10-28T04:44:07.580Z,10.77
2022-10-28T04:46:34.772Z,13.38
2022-10-28T04:49:05.965Z,22.90
2022-10-28T04:51:32.769Z,22.33
2022-10-28T04:53:59.533Z,19.33
2022-10-28T04:56:26.338Z,20.85
2022-10-28T04:58:53.105Z,20.88
2022-10-28T05:01:19.943Z,17.52
2022-10-28T05:03:46.782Z,22.10
2022-10-28T05:06:13.611Z,20.38
2022-10-28T05:08:40.314Z,19.90
2022-10-28T05:11:07.089Z,20.15
2022-10-28T05:13:33.870Z,20.95
2022-10-28T05:16:00.694Z,21.45
2022-10-28T05:18:27.569Z,24.52
2022-10-28T05:20:55.327Z,18.70
2022-10-28T05:23:27.268Z,17.38
2022-10-28T05:25:56.734Z,18.83
2022-10-28T05:28:23.650Z,20.83
2022-10-28T05:30:50.494Z,18.35
2022-10-28T05:33:17.250Z,13.77
2022-10-28T05:35:44.056Z,13.95
2022-10-28T05:38:10.881Z,21.95
2022-10-28T05:40:37.670Z,16.73
2022-10-28T05:43:04.672Z,11.77
2022-10-28T05:45:31.774Z,15.80
2022-10-28T05:47:58.644Z,15.23
2022-10-28T05:50:25.637Z,17.70
2022-10-28T05:52:54.862Z,16.38
2022-10-28T05:55:25.099Z,18.13
2022-10-28T05:57:53.244Z,17.77
2022-10-28T06:00:23.125Z,14.10
2022-10-28T06:02:50.343Z,12.00
2022-10-28T06:05:18.149Z,21.17
2022-10-28T06:07:45.079Z,27.63
2022-10-28T06:10:12.105Z,16.85
2022-10-28T06:12:37.765Z,15.98
2022-10-28T06:15:04.940Z,24.92
2022-10-28T06:17:31.749Z,19.85
2022-10-28T06:19:58.506Z,15.32
2022-10-28T06:22:25.319Z,20.50
2022-10-28T06:24:52.102Z,17.27
2022-10-28T06:27:18.918Z,27.05
2022-10-28T06:29:45.614Z,10.68
2022-10-28T06:32:12.512Z,10.73
2022-10-28T06:34:39.352Z,17.30
2022-10-28T06:37:06.095Z,17.33
2022-10-28T06:39:33.019Z,15.13
2022-10-28T06:41:59.911Z,12.88
2022-10-28T06:44:26.597Z,13.85
2022-10-28T06:46:56.017Z,10.98
2022-10-28T06:49:22.854Z,18.63
2022-10-28T06:51:50.289Z,12.15
2022-10-28T06:54:17.808Z,14.50
2022-10-28T06:56:47.500Z,17.13
2022-10-28T06:59:14.380Z,19.40
2022-10-28T07:01:41.427Z,15.30
2022-10-28T07:04:12.089Z,17.63
2022-10-28T07:06:39.598Z,22.27
2022-10-28T07:09:07.187Z,20.25
2022-10-28T07:11:34.082Z,20.33
2022-10-28T07:14:01.007Z,20.10
2022-10-28T07:16:27.814Z,29.20
2022-10-28T07:18:54.606Z,20.95
2022-10-28T07:21:24.513Z,19.20
2022-10-28T07:23:51.277Z,20.42
2022-10-28T07:26:18.181Z,20.02
2022-10-28T07:28:44.916Z,16.42
2022-10-28T07:33:38.327Z,23.35
2022-10-28T07:36:05.947Z,20.33
2022-10-28T07:38:33.309Z,40.38
2022-10-28T07:41:04.867Z,83.85
2022-10-28T07:43:31.643Z,97.13
2022-10-28T07:45:58.665Z,116.00
2022-10-28T07:48:25.525Z,115.13
2022-10-28T07:50:52.482Z,101.32
2022-10-28T07:53:19.843Z,94.90
2022-10-28T07:55:58.451Z,77.13
2022-10-28T07:58:26.081Z,47.13
2022-10-28T08:00:53.384Z,64.80
2022-10-28T08:03:20.444Z,52.85
2022-10-28T08:05:47.402Z,41.80
2022-10-28T08:08:14.171Z,38.88
2022-10-28T08:10:41.030Z,48.47
2022-10-28T08:13:07.904Z,29.90
2022-10-28T08:15:34.656Z,28.48
2022-10-28T08:18:01.536Z,30.10
2022-10-28T08:20:28.873Z,26.50
2022-10-28T08:22:56.154Z,26.45
2022-10-28T08:25:23.127Z,27.48
2022-10-28T08:27:50.127Z,23.05
2022-10-28T08:30:16.919Z,25.73
2022-10-28T08:32:43.730Z,36.47
2022-10-28T08:35:10.589Z,21.95
2022-10-28T08:37:37.521Z,26.35
2022-10-28T08:40:04.950Z,27.00
2022-10-28T08:42:54.597Z,22.73
2022-10-28T08:45:47.069Z,21.55
2022-10-28T08:48:44.459Z,21.55
2022-10-28T08:51:20.084Z,15.38
2022-10-28T08:53:57.171Z,19.40
2022-10-28T08:56:39.444Z,26.88
2022-10-28T08:59:12.712Z,19.13
2022-10-28T09:01:48.518Z,20.67
2022-10-28T09:04:39.912Z,22.38
2022-10-28T09:07:21.635Z,26.98
2022-10-28T09:09:50.342Z,33.92
2022-10-28T09:12:44.649Z,25.77
2022-10-28T09:15:36.415Z,27.02
2022-10-28T09:18:22.973Z,26.45
2022-10-28T09:20:57.905Z,32.33
2022-10-28T09:23:28.873Z,25.10
2022-10-28T09:26:20.741Z,27.48
2022-10-28T09:28:50.649Z,26.08
2022-10-28T09:31:26.992Z,25.08
2022-10-28T09:34:02.977Z,25.13
2022-10-28T09:36:40.878Z,25.30
2022-10-28T09:39:16.949Z,34.42
2022-10-28T09:41:46.501Z,27.00
2022-10-28T09:44:22.614Z,19.60
2022-10-28T09:46:53.772Z,21.58
2022-10-28T09:49:35.273Z,17.77
2022-10-28T09:52:15.273Z,19.75
2022-10-28T09:54:50.698Z,19.40
2022-10-28T09:57:17.682Z,24.92
2022-10-28T09:59:45.358Z,22.50
2022-10-28T10:02:32.516Z,18.35
2022-10-28T10:05:02.085Z,20.25
2022-10-28T10:07:37.419Z,20.73
2022-10-28T10:10:36.228Z,20.52
2022-10-28T10:13:06.253Z,17.67
2022-10-28T10:15:39.937Z,21.35
2022-10-28T10:18:15.893Z,24.23
2022-10-28T10:20:51.632Z,17.15
2022-10-28T10:23:41.324Z,20.70
2022-10-28T10:26:12.772Z,18.13
2022-10-28T10:28:48.542Z,19.63
2022-10-28T10:31:21.514Z,19.90
2022-10-28T10:33:51.442Z,17.33
2022-10-28T10:36:23.773Z,17.13
2022-10-28T10:38:54.489Z,18.42
2022-10-28T10:44:30.565Z,23.77
2022-10-28T10:47:04.979Z,22.15
2022-10-28T10:49:35.408Z,17.17
2022-10-28T10:52:07.997Z,18.15
2022-10-28T10:54:37.179Z,22.05
2022-10-28T10:57:19.882Z,20.35
2022-10-28T10:59:49.883Z,16.67
2022-10-28T11:02:32.737Z,16.08
2022-10-28T11:05:06.958Z,20.23
2022-10-28T11:07:34.074Z,15.43
2022-10-28T11:10:02.097Z,23.52
2022-10-28T11:12:36.056Z,19.80
2022-10-28T11:15:20.052Z,20.42
2022-10-28T11:17:59.348Z,17.10
2022-10-28T11:20:44.059Z,15.15
2022-10-28T11:23:35.201Z,19.55
2022-10-28T11:26:09.846Z,18.90
2022-10-28T11:28:58.834Z,16.65
2022-10-28T11:31:40.991Z,17.48
2022-10-28T11:34:40.054Z,19.70
2022-10-28T11:37:25.106Z,21.52
2022-10-28T11:40:25.530Z,22.08
2022-10-28T11:43:28.715Z,17.98
2022-10-28T11:46:28.019Z,14.07
2022-10-28T11:49:07.267Z,16.98
2022-10-28T11:52:12.878Z,18.42
2022-10-28T11:54:51.890Z,15.60
2022-10-28T11:57:45.574Z,19.48
2022-10-28T12:00:42.907Z,20.70
2022-10-28T12:03:34.129Z,18.55
2022-10-28T12:06:17.415Z,19.95
2022-10-28T12:09:11.697Z,15.55
2022-10-28T12:11:56.628Z,13.55
2022-10-28T12:14:46.337Z,12.63
2022-10-28T12:17:31.017Z,16.70
2022-10-28T12:20:03.052Z,14.65
2022-10-28T12:22:55.171Z,16.55
2022-10-28T12:25:26.953Z,16.55
2022-10-28T12:28:02.658Z,17.35
2022-10-28T12:30:32.182Z,19.00
2022-10-28T12:33:07.651Z,15.80
2022-10-28T12:35:40.421Z,15.27
2022-10-28T12:38:14.730Z,14.15
2022-10-28T12:40:48.331Z,16.60
2022-10-28T12:43:33.047Z,16.40
2022-10-28T12:46:00.531Z,17.15
2022-10-28T12:48:48.689Z,19.77
2022-10-28T12:51:22.745Z,24.38
2022-10-28T12:53:54.202Z,21.77
2022-10-28T12:56:33.378Z,19.92
2022-10-28T12:59:19.036Z,18.52
2022-10-28T13:01:49.522Z,25.65
2022-10-28T13:06:52.582Z,13.88
2022-10-28T13:09:59.900Z,19.50
2022-10-28T13:12:52.108Z,17.55
2022-10-28T13:15:33.288Z,11.75
2022-10-28T13:18:23.855Z,21.08
2022-10-28T13:21:05.818Z,16.52
2022-10-28T13:23:43.754Z,16.33
2022-10-28T13:26:28.265Z,17.63
2022-10-28T13:28:59.053Z,16.50
2022-10-28T13:31:41.889Z,12.15
2022-10-28T13:34:12.868Z,16.88
2022-10-28T13:36:47.211Z,17.63
2022-10-28T13:39:42.685Z,19.10
2022-10-28T13:42:12.609Z,16.55
2022-10-28T13:44:55.924Z,16.55
2022-10-28T13:47:33.904Z,14.18
2022-10-28T13:50:07.641Z,11.98
2022-10-28T13:52:35.228Z,18.67
2022-10-28T13:55:14.250Z,16.17
2022-10-28T13:57:44.533Z,25.60
2022-10-28T14:00:17.587Z,16.70
2022-10-28T14:02:57.530Z,23.92
2022-10-28T14:05:36.918Z,16.15
2022-10-28T14:08:07.921Z,44.17
2022-10-28T14:10:38.667Z,39.95
2022-10-28T14:13:20.663Z,37.53
2022-10-28T14:15:48.875Z,31.23
2022-10-28T14:21:04.812Z,59.50
2022-10-28T14:23:34.220Z,46.80
2022-10-28T14:26:05.298Z,46.05
2022-10-28T14:28:32.154Z,33.28
2022-10-28T14:31:07.834Z,30.92
2022-10-28T14:33:35.698Z,29.05
2022-10-28T14:36:17.898Z,27.67
2022-10-28T14:39:03.999Z,25.80
2022-10-28T14:41:50.124Z,21.85
2022-10-28T14:44:38.693Z,20.20
2022-10-28T14:47:26.859Z,32.53
2022-10-28T14:50:15.585Z,17.75
2022-10-28T14:52:44.393Z,27.02
2022-10-28T14:55:26.026Z,24.20
2022-10-28T14:57:53.454Z,23.17
2022-10-28T15:00:23.803Z,14.43
2022-10-28T15:02:50.992Z,20.73
2022-10-28T15:05:24.903Z,18.00
2022-10-28T15:07:52.429Z,16.17
2022-10-28T15:10:27.476Z,13.25
2022-10-28T15:12:57.620Z,16.25
2022-10-28T15:15:27.867Z,18.58
2022-10-28T15:17:55.055Z,14.40
2022-10-28T15:20:30.610Z,14.10
2022-10-28T15:23:12.515Z,13.75
2022-10-28T15:25:39.429Z,17.92
2022-10-28T15:28:06.200Z,70.68
2022-10-28T15:30:34.855Z,74.95
2022-10-28T15:33:21.405Z,80.18
2022-10-28T15:35:48.716Z,86.97
2022-10-28T15:38:21.470Z,73.97
2022-10-28T15:40:49.290Z,69.93
2022-10-28T15:43:23.624Z,51.03
2022-10-28T15:45:50.808Z,38.20
2022-10-28T15:48:27.606Z,35.95
2022-10-28T15:51:12.760Z,31.85
2022-10-28T15:54:00.932Z,27.20
2022-10-28T15:56:27.840Z,31.73
2022-10-28T15:59:23.387Z,33.35
2022-10-28T16:01:51.076Z,36.58
2022-10-28T16:04:23.702Z,35.25
2022-10-28T16:06:56.738Z,25.95
2022-10-28T16:09:35.164Z,29.33
2022-10-28T16:12:15.837Z,21.58
2022-10-28T16:14:44.164Z,19.40
2022-10-28T16:17:22.188Z,21.25
2022-10-28T16:20:17.203Z,21.88
2022-10-28T16:22:46.685Z,29.25
2022-10-28T16:25:17.392Z,32.35
2022-10-28T16:27:44.267Z,30.40
2022-10-28T16:30:11.635Z,31.33
2022-10-28T16:32:45.656Z,27.33
2022-10-28T16:35:18.128Z,21.85
2022-10-28T16:37:47.384Z,27.35
2022-10-28T16:40:37.698Z,27.42
2022-10-28T16:43:03.858Z,22.98
2022-10-28T16:45:30.689Z,30.27
2022-10-28T16:47:57.970Z,26.98
2022-10-28T16:50:25.059Z,37.75
2022-10-28T16:52:54.364Z,31.77
2022-10-28T16:55:21.213Z,23.60
2022-10-28T16:57:48.096Z,28.55
2022-10-28T17:00:15.695Z,21.02
2022-10-28T17:02:42.937Z,30.90
2022-10-28T17:05:19.237Z,29.08
2022-10-28T17:07:46.094Z,25.85
2022-10-28T17:10:13.325Z,29.50
2022-10-28T17:12:40.203Z,22.83
2022-10-28T17:15:08.080Z,21.90
2022-10-28T17:17:35.054Z,26.48
2022-10-28T17:20:01.850Z,19.88
2022-10-28T17:22:28.648Z,26.73
2022-10-28T17:24:55.558Z,25.77
2022-10-28T17:27:22.550Z,29.65
2022-10-28T17:29:49.344Z,33.20
2022-10-28T17:32:16.428Z,26.50
2022-10-28T17:34:43.275Z,22.45
2022-10-28T17:37:10.626Z,19.65
2022-10-28T17:39:38.007Z,21.40
2022-10-28T17:42:05.215Z,18.90
2022-10-28T17:44:32.278Z,17.73
2022-10-28T17:46:59.162Z,21.73
2022-10-28T17:49:26.171Z,22.73
2022-10-28T17:51:53.132Z,24.98
2022-10-28T17:54:20.035Z,31.38
2022-10-28T17:56:47.879Z,25.13
2022-10-28T17:59:15.016Z,23.73
2022-10-28T18:01:41.863Z,33.40
2022-10-28T18:04:08.900Z,28.08
2022-10-28T18:06:36.279Z,25.05
2022-10-28T18:09:03.715Z,28.48
2022-10-28T18:11:32.633Z,29.02
2022-10-28T18:13:59.656Z,26.10
2022-10-28T18:16:28.331Z,25.00
2022-10-28T18:18:56.087Z,31.80
2022-10-28T18:21:24.787Z,25.52
2022-10-28T18:23:54.877Z,29.38
2022-10-28T18:26:21.810Z,22.90
2022-10-28T18:28:49.669Z,24.75
2022-10-28T18:31:18.987Z,22.60
2022-10-28T18:33:46.620Z,19.48
2022-10-28T18:36:16.374Z,18.05
2022-10-28T18:38:43.204Z,22.85
2022-10-28T18:41:15.097Z,23.83
2022-10-28T18:43:42.447Z,38.67
2022-10-28T18:46:09.837Z,29.15
2022-10-28T18:48:37.007Z,23.55
2022-10-28T18:51:06.910Z,27.25
2022-10-28T18:53:40.039Z,22.45
2022-10-28T18:56:10.311Z,27.15
2022-10-28T18:58:37.307Z,18.65
2022-10-28T19:01:05.186Z,21.70
2022-10-28T19:03:32.338Z,20.65
2022-10-28T19:06:09.112Z,21.40
2022-10-28T19:08:39.772Z,22.48
2022-10-28T19:11:08.195Z,19.73
2022-10-28T19:13:46.561Z,20.15
2022-10-28T19:16:18.588Z,24.98
2022-10-28T19:18:45.661Z,26.30
2022-10-28T19:21:14.679Z,18.55
2022-10-28T19:23:42.854Z,19.23
2022-10-28T19:26:16.202Z,22.85
2022-10-28T19:28:45.683Z,20.55
2022-10-28T19:31:16.879Z,21.13
2022-10-28T19:33:45.815Z,21.52
2022-10-28T19:36:20.646Z,18.95
2022-10-28T19:38:49.383Z,19.20
2022-10-28T19:41:22.187Z,25.30
2022-10-28T19:43:57.756Z,17.60
2022-10-28T19:46:28.012Z,25.13
2022-10-28T20:10:05.987Z,20.98
2022-10-28T20:14:05.853Z,18.52
2022-10-28T20:25:53.196Z,13.70
2022-10-28T20:41:20.877Z,20.00
2022-10-28T20:46:58.646Z,24.27
2022-10-28T20:49:41.248Z,18.35
2022-10-28T21:00:20.836Z,17.55
2022-10-28T21:07:51.631Z,12.07
2022-10-28T21:10:42.541Z,11.95
2022-10-28T21:13:26.603Z,16.77
2022-10-28T21:16:02.398Z,15.77
2022-10-28T21:22:59.955Z,17.17
2022-10-28T21:25:32.202Z,17.73
2022-10-28T21:31:42.875Z,20.95
2022-10-28T21:34:26.781Z,21.20
2022-10-28T21:37:02.859Z,18.20
2022-10-28T21:39:40.076Z,24.85
2022-10-28T21:43:05.037Z,12.98
2022-10-28T21:45:42.399Z,11.50
2022-10-28T21:51:46.946Z,14.30
2022-10-28T21:54:37.020Z,16.17
2022-10-28T21:57:04.298Z,13.98
2022-10-28T21:59:33.391Z,15.45
2022-10-28T22:02:00.711Z,18.38
2022-10-28T22:04:27.810Z,18.95
2022-10-28T22:08:38.383Z,18.08
2022-10-28T22:10:57.499Z,18.13
2022-10-28T22:13:25.822Z,14.05
2022-10-28T22:16:18.080Z,15.50
2022-10-28T22:19:05.751Z,16.25
2022-10-28T22:21:58.676Z,17.27
2022-10-28T22:29:08.687Z,18.80
2022-10-28T23:07:14.685Z,13.43
